Terminal Aerodrome Forecast
Issued by NWS Blacksburg, VA

Current Version | Previous Version | Text Only | Print | Product List | Glossary Off
Versions: 1 2 3 4 5 6 7 8 9 10 11 12 13 14 15 16 17 18 19 20 21 22 23 24 25 26 27 28

000
FTUS41 KRNK 200540
TAFBLF
TAF
KBLF 200540Z 2006/2106 25003KT 1/2SM FG VV003
     FM201300 27006KT 6SM -SHRA BKN040 OVC100
     FM201700 28008KT P6SM VCTS SCT040CB BKN070
     FM202200 26004KT P6SM SCT050 BKN200=

USA.gov is the U.S. government's official web portal to all federal, state and local government web resources and services.